sensor_id;sensor_type;location;lat;lon;timestamp;P1;durP1;ratioP1;P2;durP2;ratioP2
28862;SDS011;15994;51.796;13.006;2023-07-29T00:00:05;2.22;;;1.50;;
28862;SDS011;15994;51.796;13.006;2023-07-29T00:02:32;1.83;;;1.42;;
28862;SDS011;15994;51.796;13.006;2023-07-29T00:04:59;1.95;;;1.55;;
28862;SDS011;15994;51.796;13.006;2023-07-29T00:07:26;2.20;;;1.60;;
28862;SDS011;15994;51.796;13.006;2023-07-29T00:09:53;2.50;;;1.58;;
28862;SDS011;15994;51.796;13.006;2023-07-29T00:12:20;2.53;;;1.60;;
28862;SDS011;15994;51.796;13.006;2023-07-29T00:14:47;2.13;;;1.50;;
28862;SDS011;15994;51.796;13.006;2023-07-29T00:17:14;3.45;;;1.83;;
28862;SDS011;15994;51.796;13.006;2023-07-29T00:19:41;1.85;;;1.50;;
28862;SDS011;15994;51.796;13.006;2023-07-29T00:22:08;3.35;;;1.60;;
28862;SDS011;15994;51.796;13.006;2023-07-29T00:24:35;1.98;;;1.55;;
28862;SDS011;15994;51.796;13.006;2023-07-29T00:27:02;2.70;;;1.80;;
28862;SDS011;15994;51.796;13.006;2023-07-29T00:29:29;2.33;;;1.85;;
28862;SDS011;15994;51.796;13.006;2023-07-29T00:31:56;2.03;;;1.63;;
28862;SDS011;15994;51.796;13.006;2023-07-29T00:34:23;3.75;;;1.95;;
28862;SDS011;15994;51.796;13.006;2023-07-29T00:36:50;2.28;;;1.70;;
28862;SDS011;15994;51.796;13.006;2023-07-29T00:39:17;1.85;;;1.48;;
28862;SDS011;15994;51.796;13.006;2023-07-29T00:41:45;2.45;;;1.73;;
28862;SDS011;15994;51.796;13.006;2023-07-29T00:44:12;3.85;;;1.60;;
28862;SDS011;15994;51.796;13.006;2023-07-29T00:46:39;2.03;;;1.70;;
28862;SDS011;15994;51.796;13.006;2023-07-29T00:49:07;2.08;;;1.55;;
28862;SDS011;15994;51.796;13.006;2023-07-29T00:51:34;2.40;;;1.52;;
28862;SDS011;15994;51.796;13.006;2023-07-29T00:54:01;2.50;;;1.80;;
28862;SDS011;15994;51.796;13.006;2023-07-29T00:56:28;1.80;;;1.42;;
28862;SDS011;15994;51.796;13.006;2023-07-29T00:58:55;2.35;;;1.63;;
28862;SDS011;15994;51.796;13.006;2023-07-29T01:01:26;3.88;;;1.85;;
28862;SDS011;15994;51.796;13.006;2023-07-29T01:03:53;2.00;;;1.70;;
28862;SDS011;15994;51.796;13.006;2023-07-29T01:06:28;1.83;;;1.58;;
28862;SDS011;15994;51.796;13.006;2023-07-29T01:13:51;2.13;;;1.90;;
28862;SDS011;15994;51.796;13.006;2023-07-29T01:16:39;2.95;;;1.80;;
28862;SDS011;15994;51.796;13.006;2023-07-29T01:19:09;1.98;;;1.67;;
28862;SDS011;15994;51.796;13.006;2023-07-29T01:21:40;2.03;;;1.65;;
28862;SDS011;15994;51.796;13.006;2023-07-29T01:24:07;3.88;;;1.80;;
28862;SDS011;15994;51.796;13.006;2023-07-29T01:26:34;2.00;;;1.65;;
28862;SDS011;15994;51.796;13.006;2023-07-29T01:29:01;2.17;;;1.73;;
28862;SDS011;15994;51.796;13.006;2023-07-29T01:31:31;2.10;;;1.70;;
28862;SDS011;15994;51.796;13.006;2023-07-29T01:34:10;2.00;;;1.67;;
28862;SDS011;15994;51.796;13.006;2023-07-29T01:36:39;2.60;;;1.73;;
28862;SDS011;15994;51.796;13.006;2023-07-29T01:39:08;2.03;;;1.58;;
28862;SDS011;15994;51.796;13.006;2023-07-29T01:41:36;2.10;;;1.50;;
28862;SDS011;15994;51.796;13.006;2023-07-29T01:44:03;3.30;;;1.85;;
28862;SDS011;15994;51.796;13.006;2023-07-29T01:46:32;1.95;;;1.70;;
28862;SDS011;15994;51.796;13.006;2023-07-29T01:48:59;2.90;;;1.80;;
28862;SDS011;15994;51.796;13.006;2023-07-29T01:51:26;2.47;;;1.60;;
28862;SDS011;15994;51.796;13.006;2023-07-29T01:53:53;2.08;;;1.65;;
28862;SDS011;15994;51.796;13.006;2023-07-29T01:56:20;1.90;;;1.70;;
28862;SDS011;15994;51.796;13.006;2023-07-29T01:58:47;3.78;;;1.65;;
28862;SDS011;15994;51.796;13.006;2023-07-29T02:01:14;2.20;;;1.60;;
28862;SDS011;15994;51.796;13.006;2023-07-29T02:03:41;2.35;;;1.60;;
28862;SDS011;15994;51.796;13.006;2023-07-29T02:06:08;2.30;;;1.73;;
28862;SDS011;15994;51.796;13.006;2023-07-29T02:08:35;3.03;;;1.77;;
28862;SDS011;15994;51.796;13.006;2023-07-29T02:11:02;2.22;;;1.60;;
28862;SDS011;15994;51.796;13.006;2023-07-29T02:13:29;2.15;;;1.73;;
28862;SDS011;15994;51.796;13.006;2023-07-29T02:15:56;1.65;;;1.48;;
28862;SDS011;15994;51.796;13.006;2023-07-29T02:18:23;2.42;;;1.60;;
28862;SDS011;15994;51.796;13.006;2023-07-29T02:20:50;2.72;;;1.50;;
28862;SDS011;15994;51.796;13.006;2023-07-29T02:23:17;2.95;;;1.63;;
28862;SDS011;15994;51.796;13.006;2023-07-29T02:25:44;1.73;;;1.58;;
28862;SDS011;15994;51.796;13.006;2023-07-29T02:28:11;1.65;;;1.33;;
28862;SDS011;15994;51.796;13.006;2023-07-29T02:30:40;2.30;;;1.50;;
28862;SDS011;15994;51.796;13.006;2023-07-29T02:33:09;2.10;;;1.40;;
28862;SDS011;15994;51.796;13.006;2023-07-29T02:35:36;2.35;;;1.70;;
28862;SDS011;15994;51.796;13.006;2023-07-29T02:38:03;1.80;;;1.50;;
28862;SDS011;15994;51.796;13.006;2023-07-29T02:40:30;1.90;;;1.42;;
28862;SDS011;15994;51.796;13.006;2023-07-29T02:42:57;2.60;;;1.58;;
28862;SDS011;15994;51.796;13.006;2023-07-29T02:45:24;1.77;;;1.40;;
28862;SDS011;15994;51.796;13.006;2023-07-29T02:47:51;1.73;;;1.50;;
28862;SDS011;15994;51.796;13.006;2023-07-29T02:50:18;1.80;;;1.20;;
28862;SDS011;15994;51.796;13.006;2023-07-29T02:52:45;1.40;;;1.05;;
28862;SDS011;15994;51.796;13.006;2023-07-29T02:55:12;2.33;;;1.40;;
28862;SDS011;15994;51.796;13.006;2023-07-29T02:57:39;2.05;;;1.50;;
28862;SDS011;15994;51.796;13.006;2023-07-29T03:00:06;2.42;;;1.42;;
28862;SDS011;15994;51.796;13.006;2023-07-29T03:02:33;1.60;;;1.40;;
28862;SDS011;15994;51.796;13.006;2023-07-29T03:05:00;1.75;;;1.45;;
28862;SDS011;15994;51.796;13.006;2023-07-29T03:07:28;1.80;;;1.40;;
28862;SDS011;15994;51.796;13.006;2023-07-29T03:09:55;2.30;;;1.40;;
28862;SDS011;15994;51.796;13.006;2023-07-29T03:12:22;2.15;;;1.30;;
28862;SDS011;15994;51.796;13.006;2023-07-29T03:14:49;1.73;;;1.30;;
28862;SDS011;15994;51.796;13.006;2023-07-29T03:17:16;2.05;;;1.30;;
28862;SDS011;15994;51.796;13.006;2023-07-29T03:19:43;1.40;;;1.15;;
28862;SDS011;15994;51.796;13.006;2023-07-29T03:22:10;2.47;;;1.13;;
28862;SDS011;15994;51.796;13.006;2023-07-29T03:24:37;1.50;;;1.27;;
28862;SDS011;15994;51.796;13.006;2023-07-29T03:27:04;2.47;;;1.15;;
28862;SDS011;15994;51.796;13.006;2023-07-29T03:29:32;1.20;;;1.02;;
28862;SDS011;15994;51.796;13.006;2023-07-29T03:31:58;2.70;;;1.30;;
28862;SDS011;15994;51.796;13.006;2023-07-29T03:34:25;1.30;;;1.10;;
28862;SDS011;15994;51.796;13.006;2023-07-29T03:36:52;2.05;;;1.30;;
28862;SDS011;15994;51.796;13.006;2023-07-29T03:39:20;1.80;;;1.25;;
28862;SDS011;15994;51.796;13.006;2023-07-29T03:41:46;2.20;;;1.15;;
28862;SDS011;15994;51.796;13.006;2023-07-29T03:44:13;1.95;;;1.20;;
28862;SDS011;15994;51.796;13.006;2023-07-29T03:46:40;1.52;;;1.15;;
28862;SDS011;15994;51.796;13.006;2023-07-29T03:49:07;1.60;;;1.23;;
28862;SDS011;15994;51.796;13.006;2023-07-29T03:51:34;1.45;;;1.30;;
28862;SDS011;15994;51.796;13.006;2023-07-29T03:54:01;1.83;;;1.25;;
28862;SDS011;15994;51.796;13.006;2023-07-29T03:56:28;2.22;;;1.50;;
28862;SDS011;15994;51.796;13.006;2023-07-29T03:59:02;1.50;;;1.20;;
28862;SDS011;15994;51.796;13.006;2023-07-29T04:01:29;1.40;;;1.13;;
28862;SDS011;15994;51.796;13.006;2023-07-29T04:03:56;1.67;;;1.20;;
28862;SDS011;15994;51.796;13.006;2023-07-29T04:06:23;1.88;;;1.33;;
28862;SDS011;15994;51.796;13.006;2023-07-29T04:08:50;1.30;;;1.17;;
28862;SDS011;15994;51.796;13.006;2023-07-29T04:11:17;1.75;;;1.25;;
28862;SDS011;15994;51.796;13.006;2023-07-29T04:13:45;1.58;;;1.27;;
28862;SDS011;15994;51.796;13.006;2023-07-29T04:16:11;1.60;;;1.05;;
28862;SDS011;15994;51.796;13.006;2023-07-29T04:18:38;1.98;;;1.13;;
28862;SDS011;15994;51.796;13.006;2023-07-29T04:21:05;1.92;;;1.30;;
28862;SDS011;15994;51.796;13.006;2023-07-29T04:23:32;1.65;;;1.10;;
28862;SDS011;15994;51.796;13.006;2023-07-29T04:26:00;2.00;;;1.30;;
28862;SDS011;15994;51.796;13.006;2023-07-29T04:28:27;1.50;;;1.23;;
28862;SDS011;15994;51.796;13.006;2023-07-29T04:30:54;1.30;;;1.10;;
28862;SDS011;15994;51.796;13.006;2023-07-29T04:33:21;1.35;;;0.98;;
28862;SDS011;15994;51.796;13.006;2023-07-29T04:35:48;1.52;;;1.00;;
28862;SDS011;15994;51.796;13.006;2023-07-29T04:38:15;2.08;;;0.80;;
28862;SDS011;15994;51.796;13.006;2023-07-29T04:40:42;1.40;;;1.00;;
28862;SDS011;15994;51.796;13.006;2023-07-29T04:43:09;1.17;;;1.00;;
28862;SDS011;15994;51.796;13.006;2023-07-29T04:45:36;1.30;;;1.10;;
28862;SDS011;15994;51.796;13.006;2023-07-29T04:48:03;1.90;;;1.17;;
28862;SDS011;15994;51.796;13.006;2023-07-29T04:50:30;1.40;;;0.90;;
28862;SDS011;15994;51.796;13.006;2023-07-29T04:52:57;1.15;;;1.00;;
28862;SDS011;15994;51.796;13.006;2023-07-29T04:55:24;1.52;;;1.00;;
28862;SDS011;15994;51.796;13.006;2023-07-29T04:57:51;1.15;;;0.82;;
28862;SDS011;15994;51.796;13.006;2023-07-29T05:00:18;1.55;;;1.08;;
28862;SDS011;15994;51.796;13.006;2023-07-29T05:02:45;1.65;;;1.15;;
28862;SDS011;15994;51.796;13.006;2023-07-29T05:05:12;1.67;;;1.10;;
28862;SDS011;15994;51.796;13.006;2023-07-29T05:07:39;1.75;;;1.00;;
28862;SDS011;15994;51.796;13.006;2023-07-29T05:10:06;1.17;;;0.95;;
28862;SDS011;15994;51.796;13.006;2023-07-29T05:12:34;2.60;;;1.08;;
28862;SDS011;15994;51.796;13.006;2023-07-29T05:15:01;1.50;;;1.05;;
28862;SDS011;15994;51.796;13.006;2023-07-29T05:17:28;1.65;;;0.98;;
28862;SDS011;15994;51.796;13.006;2023-07-29T05:19:55;1.30;;;1.00;;
28862;SDS011;15994;51.796;13.006;2023-07-29T05:22:22;1.92;;;0.98;;
28862;SDS011;15994;51.796;13.006;2023-07-29T05:24:49;1.80;;;1.20;;
28862;SDS011;15994;51.796;13.006;2023-07-29T05:27:16;1.10;;;0.90;;
28862;SDS011;15994;51.796;13.006;2023-07-29T05:29:43;1.63;;;0.90;;
28862;SDS011;15994;51.796;13.006;2023-07-29T05:32:10;1.02;;;0.82;;
28862;SDS011;15994;51.796;13.006;2023-07-29T05:34:38;1.77;;;0.98;;
28862;SDS011;15994;51.796;13.006;2023-07-29T05:37:05;1.23;;;0.90;;
28862;SDS011;15994;51.796;13.006;2023-07-29T05:39:32;1.00;;;0.77;;
28862;SDS011;15994;51.796;13.006;2023-07-29T05:41:59;1.40;;;0.95;;
28862;SDS011;15994;51.796;13.006;2023-07-29T05:44:27;1.27;;;1.00;;
28862;SDS011;15994;51.796;13.006;2023-07-29T05:46:55;1.20;;;1.00;;
28862;SDS011;15994;51.796;13.006;2023-07-29T05:49:22;1.38;;;1.00;;
28862;SDS011;15994;51.796;13.006;2023-07-29T05:51:49;2.33;;;1.00;;
28862;SDS011;15994;51.796;13.006;2023-07-29T05:54:18;2.15;;;0.98;;
28862;SDS011;15994;51.796;13.006;2023-07-29T05:56:45;2.20;;;1.13;;
28862;SDS011;15994;51.796;13.006;2023-07-29T05:59:12;1.20;;;0.90;;
28862;SDS011;15994;51.796;13.006;2023-07-29T06:01:39;3.17;;;0.90;;
28862;SDS011;15994;51.796;13.006;2023-07-29T06:04:05;1.55;;;0.80;;
28862;SDS011;15994;51.796;13.006;2023-07-29T06:06:32;2.28;;;0.85;;
28862;SDS011;15994;51.796;13.006;2023-07-29T06:08:59;1.40;;;0.82;;
28862;SDS011;15994;51.796;13.006;2023-07-29T06:11:26;1.13;;;0.70;;
28862;SDS011;15994;51.796;13.006;2023-07-29T06:13:53;2.03;;;0.60;;
28862;SDS011;15994;51.796;13.006;2023-07-29T06:16:20;0.85;;;0.70;;
28862;SDS011;15994;51.796;13.006;2023-07-29T06:18:47;0.95;;;0.75;;
28862;SDS011;15994;51.796;13.006;2023-07-29T06:21:14;1.48;;;0.85;;
28862;SDS011;15994;51.796;13.006;2023-07-29T06:23:42;1.35;;;0.80;;
28862;SDS011;15994;51.796;13.006;2023-07-29T06:26:09;1.10;;;0.90;;
28862;SDS011;15994;51.796;13.006;2023-07-29T06:28:36;1.17;;;0.80;;
28862;SDS011;15994;51.796;13.006;2023-07-29T06:31:03;1.23;;;0.70;;
28862;SDS011;15994;51.796;13.006;2023-07-29T06:33:30;1.70;;;0.52;;
28862;SDS011;15994;51.796;13.006;2023-07-29T06:35:57;0.82;;;0.70;;
28862;SDS011;15994;51.796;13.006;2023-07-29T06:38:24;1.33;;;0.70;;
28862;SDS011;15994;51.796;13.006;2023-07-29T06:40:51;1.40;;;0.90;;
28862;SDS011;15994;51.796;13.006;2023-07-29T06:43:18;1.10;;;0.90;;
28862;SDS011;15994;51.796;13.006;2023-07-29T06:45:46;1.55;;;0.68;;
28862;SDS011;15994;51.796;13.006;2023-07-29T06:48:13;1.50;;;0.93;;
28862;SDS011;15994;51.796;13.006;2023-07-29T06:50:40;1.52;;;0.80;;
28862;SDS011;15994;51.796;13.006;2023-07-29T06:53:07;2.65;;;0.80;;
28862;SDS011;15994;51.796;13.006;2023-07-29T06:55:34;1.83;;;0.75;;
28862;SDS011;15994;51.796;13.006;2023-07-29T06:58:01;1.42;;;0.70;;
28862;SDS011;15994;51.796;13.006;2023-07-29T07:00:28;2.08;;;0.80;;
28862;SDS011;15994;51.796;13.006;2023-07-29T07:02:55;1.02;;;0.68;;
28862;SDS011;15994;51.796;13.006;2023-07-29T07:05:22;1.63;;;0.90;;
28862;SDS011;15994;51.796;13.006;2023-07-29T07:07:49;1.02;;;0.75;;
28862;SDS011;15994;51.796;13.006;2023-07-29T07:10:16;1.58;;;0.82;;
28862;SDS011;15994;51.796;13.006;2023-07-29T07:12:43;2.25;;;0.95;;
28862;SDS011;15994;51.796;13.006;2023-07-29T07:15:10;0.68;;;0.57;;
28862;SDS011;15994;51.796;13.006;2023-07-29T07:17:37;1.15;;;0.57;;
28862;SDS011;15994;51.796;13.006;2023-07-29T07:20:04;1.10;;;0.68;;
28862;SDS011;15994;51.796;13.006;2023-07-29T07:22:31;3.03;;;0.80;;
28862;SDS011;15994;51.796;13.006;2023-07-29T07:24:58;1.05;;;0.75;;
28862;SDS011;15994;51.796;13.006;2023-07-29T07:27:25;0.80;;;0.70;;
28862;SDS011;15994;51.796;13.006;2023-07-29T07:29:52;1.20;;;0.70;;
28862;SDS011;15994;51.796;13.006;2023-07-29T07:32:19;1.10;;;0.80;;
28862;SDS011;15994;51.796;13.006;2023-07-29T07:34:46;1.48;;;0.80;;
28862;SDS011;15994;51.796;13.006;2023-07-29T07:37:13;3.40;;;1.20;;
28862;SDS011;15994;51.796;13.006;2023-07-29T07:39:40;1.52;;;1.00;;
28862;SDS011;15994;51.796;13.006;2023-07-29T07:42:07;1.20;;;0.88;;
28862;SDS011;15994;51.796;13.006;2023-07-29T07:44:34;1.15;;;0.70;;
28862;SDS011;15994;51.796;13.006;2023-07-29T07:47:01;1.75;;;0.70;;
28862;SDS011;15994;51.796;13.006;2023-07-29T07:49:28;1.25;;;0.90;;
28862;SDS011;15994;51.796;13.006;2023-07-29T07:51:55;0.73;;;0.63;;
28862;SDS011;15994;51.796;13.006;2023-07-29T07:54:23;4.60;;;0.95;;
28862;SDS011;15994;51.796;13.006;2023-07-29T07:56:50;1.00;;;0.60;;
28862;SDS011;15994;51.796;13.006;2023-07-29T07:59:17;1.77;;;0.73;;
28862;SDS011;15994;51.796;13.006;2023-07-29T08:01:44;0.98;;;0.80;;
28862;SDS011;15994;51.796;13.006;2023-07-29T08:04:11;1.35;;;0.80;;
28862;SDS011;15994;51.796;13.006;2023-07-29T08:06:38;2.47;;;0.80;;
28862;SDS011;15994;51.796;13.006;2023-07-29T08:09:05;2.55;;;0.80;;
28862;SDS011;15994;51.796;13.006;2023-07-29T08:11:32;1.33;;;0.80;;
28862;SDS011;15994;51.796;13.006;2023-07-29T08:13:59;2.25;;;0.90;;
28862;SDS011;15994;51.796;13.006;2023-07-29T08:16:26;1.70;;;1.00;;
28862;SDS011;15994;51.796;13.006;2023-07-29T08:18:53;1.92;;;0.80;;
28862;SDS011;15994;51.796;13.006;2023-07-29T08:21:20;2.40;;;0.80;;
28862;SDS011;15994;51.796;13.006;2023-07-29T08:23:47;1.55;;;0.90;;
28862;SDS011;15994;51.796;13.006;2023-07-29T08:26:15;1.60;;;0.80;;
28862;SDS011;15994;51.796;13.006;2023-07-29T08:28:42;1.15;;;0.70;;
28862;SDS011;15994;51.796;13.006;2023-07-29T08:31:09;3.10;;;0.80;;
28862;SDS011;15994;51.796;13.006;2023-07-29T08:33:36;1.25;;;0.70;;
28862;SDS011;15994;51.796;13.006;2023-07-29T08:36:03;0.98;;;0.75;;
28862;SDS011;15994;51.796;13.006;2023-07-29T08:38:30;1.17;;;0.70;;
28862;SDS011;15994;51.796;13.006;2023-07-29T08:43:33;4.15;;;0.80;;
28862;SDS011;15994;51.796;13.006;2023-07-29T08:46:01;2.78;;;0.70;;
28862;SDS011;15994;51.796;13.006;2023-07-29T08:48:40;1.70;;;0.95;;
28862;SDS011;15994;51.796;13.006;2023-07-29T08:51:08;1.88;;;0.90;;
28862;SDS011;15994;51.796;13.006;2023-07-29T08:53:36;2.60;;;0.80;;
28862;SDS011;15994;51.796;13.006;2023-07-29T08:56:03;1.67;;;0.90;;
28862;SDS011;15994;51.796;13.006;2023-07-29T08:58:31;1.50;;;0.70;;
28862;SDS011;15994;51.796;13.006;2023-07-29T09:00:59;1.20;;;0.88;;
28862;SDS011;15994;51.796;13.006;2023-07-29T09:03:26;1.17;;;0.75;;
28862;SDS011;15994;51.796;13.006;2023-07-29T09:05:53;1.75;;;0.80;;
28862;SDS011;15994;51.796;13.006;2023-07-29T09:08:21;2.17;;;0.80;;
28862;SDS011;15994;51.796;13.006;2023-07-29T09:10:48;1.35;;;0.90;;
28862;SDS011;15994;51.796;13.006;2023-07-29T09:13:15;2.88;;;0.90;;
28862;SDS011;15994;51.796;13.006;2023-07-29T09:15:42;1.30;;;0.90;;
28862;SDS011;15994;51.796;13.006;2023-07-29T09:18:10;1.10;;;0.80;;
28862;SDS011;15994;51.796;13.006;2023-07-29T09:20:37;1.92;;;0.82;;
28862;SDS011;15994;51.796;13.006;2023-07-29T09:23:06;1.05;;;0.70;;
28862;SDS011;15994;51.796;13.006;2023-07-29T09:25:34;1.17;;;0.60;;
28862;SDS011;15994;51.796;13.006;2023-07-29T09:28:02;1.38;;;0.88;;
28862;SDS011;15994;51.796;13.006;2023-07-29T09:30:33;2.85;;;0.98;;
28862;SDS011;15994;51.796;13.006;2023-07-29T09:33:01;1.25;;;0.68;;
28862;SDS011;15994;51.796;13.006;2023-07-29T09:35:29;1.00;;;0.73;;
28862;SDS011;15994;51.796;13.006;2023-07-29T09:37:57;2.05;;;0.90;;
28862;SDS011;15994;51.796;13.006;2023-07-29T09:40:24;3.22;;;0.90;;
28862;SDS011;15994;51.796;13.006;2023-07-29T09:42:52;1.98;;;1.08;;
28862;SDS011;15994;51.796;13.006;2023-07-29T09:45:20;3.78;;;0.90;;
28862;SDS011;15994;51.796;13.006;2023-07-29T09:47:47;1.77;;;0.80;;
28862;SDS011;15994;51.796;13.006;2023-07-29T09:50:14;2.17;;;0.93;;
28862;SDS011;15994;51.796;13.006;2023-07-29T09:52:42;1.10;;;0.80;;
28862;SDS011;15994;51.796;13.006;2023-07-29T09:55:10;1.00;;;0.73;;
28862;SDS011;15994;51.796;13.006;2023-07-29T09:57:39;0.82;;;0.60;;
28862;SDS011;15994;51.796;13.006;2023-07-29T10:00:06;2.38;;;0.70;;
28862;SDS011;15994;51.796;13.006;2023-07-29T10:02:36;0.82;;;0.68;;
28862;SDS011;15994;51.796;13.006;2023-07-29T10:05:03;1.38;;;0.60;;
28862;SDS011;15994;51.796;13.006;2023-07-29T10:07:31;0.98;;;0.60;;
28862;SDS011;15994;51.796;13.006;2023-07-29T10:09:58;1.10;;;0.70;;
28862;SDS011;15994;51.796;13.006;2023-07-29T10:12:25;1.05;;;0.60;;
28862;SDS011;15994;51.796;13.006;2023-07-29T10:14:53;1.17;;;0.60;;
28862;SDS011;15994;51.796;13.006;2023-07-29T10:17:20;0.98;;;0.52;;
28862;SDS011;15994;51.796;13.006;2023-07-29T10:19:47;2.28;;;0.68;;
28862;SDS011;15994;51.796;13.006;2023-07-29T10:22:15;1.70;;;0.75;;
28862;SDS011;15994;51.796;13.006;2023-07-29T10:24:44;0.98;;;0.63;;
28862;SDS011;15994;51.796;13.006;2023-07-29T10:27:11;1.23;;;0.70;;
28862;SDS011;15994;51.796;13.006;2023-07-29T10:29:39;1.20;;;0.60;;
28862;SDS011;15994;51.796;13.006;2023-07-29T10:32:08;2.38;;;1.00;;
28862;SDS011;15994;51.796;13.006;2023-07-29T10:34:37;1.85;;;0.98;;
28862;SDS011;15994;51.796;13.006;2023-07-29T10:37:05;2.00;;;0.68;;
28862;SDS011;15994;51.796;13.006;2023-07-29T10:39:39;1.35;;;0.60;;
28862;SDS011;15994;51.796;13.006;2023-07-29T10:42:07;1.55;;;0.98;;
28862;SDS011;15994;51.796;13.006;2023-07-29T10:47:17;1.63;;;0.90;;
28862;SDS011;15994;51.796;13.006;2023-07-29T10:49:45;1.20;;;0.80;;
28862;SDS011;15994;51.796;13.006;2023-07-29T10:52:13;1.67;;;0.95;;
28862;SDS011;15994;51.796;13.006;2023-07-29T10:54:47;1.20;;;0.80;;
28862;SDS011;15994;51.796;13.006;2023-07-29T10:57:15;1.80;;;0.82;;
28862;SDS011;15994;51.796;13.006;2023-07-29T10:59:53;1.50;;;0.80;;
28862;SDS011;15994;51.796;13.006;2023-07-29T11:02:20;1.42;;;0.80;;
28862;SDS011;15994;51.796;13.006;2023-07-29T11:04:49;1.48;;;0.80;;
28862;SDS011;15994;51.796;13.006;2023-07-29T11:15:20;7.57;;;2.28;;
28862;SDS011;15994;51.796;13.006;2023-07-29T11:17:54;1.75;;;0.82;;
28862;SDS011;15994;51.796;13.006;2023-07-29T11:20:23;2.25;;;1.35;;
28862;SDS011;15994;51.796;13.006;2023-07-29T11:22:50;3.28;;;1.83;;
28862;SDS011;15994;51.796;13.006;2023-07-29T11:25:17;2.72;;;1.40;;
28862;SDS011;15994;51.796;13.006;2023-07-29T11:27:45;3.25;;;1.50;;
28862;SDS011;15994;51.796;13.006;2023-07-29T11:30:13;4.28;;;1.70;;
28862;SDS011;15994;51.796;13.006;2023-07-29T11:32:41;2.40;;;1.50;;
28862;SDS011;15994;51.796;13.006;2023-07-29T11:35:10;4.43;;;1.73;;
28862;SDS011;15994;51.796;13.006;2023-07-29T11:37:38;3.95;;;1.73;;
28862;SDS011;15994;51.796;13.006;2023-07-29T11:40:05;5.18;;;1.35;;
28862;SDS011;15994;51.796;13.006;2023-07-29T11:42:34;2.92;;;1.30;;
28862;SDS011;15994;51.796;13.006;2023-07-29T11:45:02;3.08;;;1.15;;
28862;SDS011;15994;51.796;13.006;2023-07-29T11:47:31;3.42;;;1.15;;
28862;SDS011;15994;51.796;13.006;2023-07-29T11:50:00;2.80;;;1.00;;
28862;SDS011;15994;51.796;13.006;2023-07-29T11:52:28;2.22;;;0.93;;
28862;SDS011;15994;51.796;13.006;2023-07-29T11:54:55;9.30;;;1.40;;
28862;SDS011;15994;51.796;13.006;2023-07-29T11:57:22;3.67;;;1.35;;
28862;SDS011;15994;51.796;13.006;2023-07-29T11:59:50;3.53;;;1.60;;
28862;SDS011;15994;51.796;13.006;2023-07-29T12:02:17;4.03;;;1.70;;
28862;SDS011;15994;51.796;13.006;2023-07-29T12:04:46;4.32;;;2.00;;
28862;SDS011;15994;51.796;13.006;2023-07-29T12:07:14;7.85;;;2.13;;
28862;SDS011;15994;51.796;13.006;2023-07-29T12:09:41;3.17;;;1.80;;
28862;SDS011;15994;51.796;13.006;2023-07-29T12:12:09;7.00;;;1.95;;
28862;SDS011;15994;51.796;13.006;2023-07-29T12:14:36;4.57;;;1.90;;
28862;SDS011;15994;51.796;13.006;2023-07-29T12:17:04;4.32;;;1.58;;
28862;SDS011;15994;51.796;13.006;2023-07-29T12:19:35;5.32;;;2.28;;
28862;SDS011;15994;51.796;13.006;2023-07-29T12:22:02;3.15;;;2.22;;
28862;SDS011;15994;51.796;13.006;2023-07-29T12:24:30;3.95;;;1.88;;
28862;SDS011;15994;51.796;13.006;2023-07-29T12:26:57;6.30;;;2.60;;
28862;SDS011;15994;51.796;13.006;2023-07-29T12:29:25;5.18;;;2.20;;
28862;SDS011;15994;51.796;13.006;2023-07-29T12:31:59;7.78;;;2.40;;
28862;SDS011;15994;51.796;13.006;2023-07-29T12:34:27;4.45;;;2.28;;
28862;SDS011;15994;51.796;13.006;2023-07-29T12:36:54;5.07;;;2.60;;
28862;SDS011;15994;51.796;13.006;2023-07-29T12:39:28;4.30;;;2.65;;
28862;SDS011;15994;51.796;13.006;2023-07-29T12:41:57;4.25;;;2.50;;
28862;SDS011;15994;51.796;13.006;2023-07-29T12:44:24;3.95;;;1.95;;
28862;SDS011;15994;51.796;13.006;2023-07-29T12:46:51;5.65;;;1.75;;
28862;SDS011;15994;51.796;13.006;2023-07-29T12:49:18;2.55;;;1.75;;
28862;SDS011;15994;51.796;13.006;2023-07-29T12:51:45;6.88;;;2.15;;
28862;SDS011;15994;51.796;13.006;2023-07-29T12:54:12;3.22;;;1.88;;
28862;SDS011;15994;51.796;13.006;2023-07-29T12:56:39;7.97;;;2.13;;
28862;SDS011;15994;51.796;13.006;2023-07-29T12:59:06;11.60;;;2.00;;
28862;SDS011;15994;51.796;13.006;2023-07-29T13:01:33;77.22;;;5.65;;
28862;SDS011;15994;51.796;13.006;2023-07-29T13:04:01;20.30;;;2.55;;
28862;SDS011;15994;51.796;13.006;2023-07-29T13:06:28;6.93;;;1.33;;
28862;SDS011;15994;51.796;13.006;2023-07-29T13:08:55;7.28;;;1.52;;
28862;SDS011;15994;51.796;13.006;2023-07-29T13:11:23;2.70;;;1.42;;
28862;SDS011;15994;51.796;13.006;2023-07-29T13:13:51;5.07;;;1.55;;
28862;SDS011;15994;51.796;13.006;2023-07-29T13:16:18;3.05;;;1.20;;
28862;SDS011;15994;51.796;13.006;2023-07-29T13:18:45;6.22;;;3.53;;
28862;SDS011;15994;51.796;13.006;2023-07-29T13:21:12;7.70;;;3.97;;
28862;SDS011;15994;51.796;13.006;2023-07-29T13:23:39;5.53;;;4.13;;
28862;SDS011;15994;51.796;13.006;2023-07-29T13:26:06;5.80;;;4.68;;
28862;SDS011;15994;51.796;13.006;2023-07-29T13:28:34;5.10;;;2.70;;
28862;SDS011;15994;51.796;13.006;2023-07-29T13:31:01;4.03;;;2.30;;
28862;SDS011;15994;51.796;13.006;2023-07-29T13:33:29;3.53;;;1.92;;
28862;SDS011;15994;51.796;13.006;2023-07-29T13:35:59;3.28;;;1.60;;
28862;SDS011;15994;51.796;13.006;2023-07-29T13:38:27;3.10;;;1.20;;
28862;SDS011;15994;51.796;13.006;2023-07-29T13:40:54;4.68;;;1.40;;
28862;SDS011;15994;51.796;13.006;2023-07-29T13:43:21;2.47;;;1.30;;
28862;SDS011;15994;51.796;13.006;2023-07-29T13:45:48;1.88;;;1.00;;
28862;SDS011;15994;51.796;13.006;2023-07-29T13:48:15;2.30;;;1.15;;
28862;SDS011;15994;51.796;13.006;2023-07-29T13:50:42;2.20;;;1.20;;
28862;SDS011;15994;51.796;13.006;2023-07-29T13:53:09;3.92;;;1.00;;
28862;SDS011;15994;51.796;13.006;2023-07-29T13:55:36;3.65;;;0.90;;
28862;SDS011;15994;51.796;13.006;2023-07-29T13:58:03;2.85;;;1.08;;
28862;SDS011;15994;51.796;13.006;2023-07-29T14:00:30;2.05;;;1.08;;
28862;SDS011;15994;51.796;13.006;2023-07-29T14:02:57;1.45;;;1.02;;
28862;SDS011;15994;51.796;13.006;2023-07-29T14:05:24;2.65;;;1.15;;
28862;SDS011;15994;51.796;13.006;2023-07-29T14:07:51;1.67;;;1.13;;
28862;SDS011;15994;51.796;13.006;2023-07-29T14:10:18;3.00;;;1.35;;
28862;SDS011;15994;51.796;13.006;2023-07-29T14:12:45;2.55;;;1.10;;
28862;SDS011;15994;51.796;13.006;2023-07-29T14:15:12;2.25;;;1.20;;
28862;SDS011;15994;51.796;13.006;2023-07-29T14:17:39;3.58;;;1.30;;
28862;SDS011;15994;51.796;13.006;2023-07-29T14:20:06;14.13;;;5.80;;
28862;SDS011;15994;51.796;13.006;2023-07-29T14:22:33;3.90;;;2.05;;
28862;SDS011;15994;51.796;13.006;2023-07-29T14:25:00;3.38;;;1.50;;
28862;SDS011;15994;51.796;13.006;2023-07-29T14:27:27;2.78;;;1.23;;
28862;SDS011;15994;51.796;13.006;2023-07-29T14:29:55;1.98;;;1.35;;
28862;SDS011;15994;51.796;13.006;2023-07-29T14:32:22;2.83;;;1.35;;
28862;SDS011;15994;51.796;13.006;2023-07-29T14:34:49;2.40;;;1.52;;
28862;SDS011;15994;51.796;13.006;2023-07-29T14:37:16;1.92;;;1.40;;
28862;SDS011;15994;51.796;13.006;2023-07-29T14:39:43;3.03;;;1.38;;
28862;SDS011;15994;51.796;13.006;2023-07-29T14:42:10;2.30;;;1.10;;
28862;SDS011;15994;51.796;13.006;2023-07-29T14:44:38;2.92;;;1.30;;
28862;SDS011;15994;51.796;13.006;2023-07-29T14:47:05;5.35;;;1.42;;
28862;SDS011;15994;51.796;13.006;2023-07-29T14:49:32;2.55;;;1.33;;
28862;SDS011;15994;51.796;13.006;2023-07-29T14:51:59;2.78;;;1.25;;